sensor_id;sensor_type;location;lat;lon;timestamp;pressure;altitude;pressure_sealevel;temperature;humidity
7836;BME280;3963;42.658;23.298;2023-04-01T00:00:24;59471.53;;;11.20;93.45
7836;BME280;3963;42.658;23.298;2023-04-01T00:02:52;59485.38;;;11.16;94.99
7836;BME280;3963;42.658;23.298;2023-04-01T00:05:19;59506.19;;;11.18;96.41
7836;BME280;3963;42.658;23.298;2023-04-01T00:07:46;59508.53;;;11.25;95.70
7836;BME280;3963;42.658;23.298;2023-04-01T00:10:13;59498.19;;;11.10;94.84
7836;BME280;3963;42.658;23.298;2023-04-01T00:12:40;59480.75;;;11.16;93.83
7836;BME280;3963;42.658;23.298;2023-04-01T00:15:09;59518.06;;;11.32;94.49
7836;BME280;3963;42.658;23.298;2023-04-01T00:17:37;59551.47;;;11.39;93.49
7836;BME280;3963;42.658;23.298;2023-04-01T00:20:07;59438.38;;;11.20;93.32
7836;BME280;3963;42.658;23.298;2023-04-01T00:22:35;59518.22;;;11.37;94.20
7836;BME280;3963;42.658;23.298;2023-04-01T00:25:02;59518.69;;;11.35;94.06
7836;BME280;3963;42.658;23.298;2023-04-01T00:27:28;59526.91;;;11.33;93.90
7836;BME280;3963;42.658;23.298;2023-04-01T00:29:56;59514.75;;;11.26;93.23
7836;BME280;3963;42.658;23.298;2023-04-01T00:32:22;59477.97;;;11.11;94.24
7836;BME280;3963;42.658;23.298;2023-04-01T00:34:50;59504.44;;;11.11;95.81
7836;BME280;3963;42.658;23.298;2023-04-01T00:37:19;59464.78;;;11.03;95.04
7836;BME280;3963;42.658;23.298;2023-04-01T00:39:47;59447.66;;;10.87;96.83
7836;BME280;3963;42.658;23.298;2023-04-01T00:42:14;59465.88;;;10.90;98.07
7836;BME280;3963;42.658;23.298;2023-04-01T00:44:41;59472.84;;;10.82;98.03
7836;BME280;3963;42.658;23.298;2023-04-01T00:47:07;59440.28;;;10.68;99.42
7836;BME280;3963;42.658;23.298;2023-04-01T00:49:39;59457.50;;;10.72;99.92
7836;BME280;3963;42.658;23.298;2023-04-01T00:52:08;59453.94;;;10.74;100.00
7836;BME280;3963;42.658;23.298;2023-04-01T00:54:41;59431.09;;;10.72;99.17
7836;BME280;3963;42.658;23.298;2023-04-01T00:57:13;59429.66;;;10.75;99.14
7836;BME280;3963;42.658;23.298;2023-04-01T00:59:43;59442.88;;;10.68;99.13
7836;BME280;3963;42.658;23.298;2023-04-01T01:02:13;59408.97;;;10.61;100.00
7836;BME280;3963;42.658;23.298;2023-04-01T01:04:41;59457.38;;;10.52;100.00
7836;BME280;3963;42.658;23.298;2023-04-01T01:07:16;59414.53;;;10.56;99.36
7836;BME280;3963;42.658;23.298;2023-04-01T01:09:55;59399.28;;;10.34;100.00
7836;BME280;3963;42.658;23.298;2023-04-01T01:12:25;59383.59;;;10.29;100.00
7836;BME280;3963;42.658;23.298;2023-04-01T01:15:02;59434.19;;;10.40;99.51
7836;BME280;3963;42.658;23.298;2023-04-01T01:17:42;59375.69;;;10.24;100.00
7836;BME280;3963;42.658;23.298;2023-04-01T01:20:32;59396.53;;;10.29;100.00
7836;BME280;3963;42.658;23.298;2023-04-01T01:26:09;59335.25;;;10.23;100.00
7836;BME280;3963;42.658;23.298;2023-04-01T01:28:47;59350.69;;;10.20;98.96
7836;BME280;3963;42.658;23.298;2023-04-01T01:31:22;59376.31;;;10.27;98.95
7836;BME280;3963;42.658;23.298;2023-04-01T01:34:06;59405.25;;;10.42;95.65
7836;BME280;3963;42.658;23.298;2023-04-01T01:36:41;59397.94;;;10.40;94.30
7836;BME280;3963;42.658;23.298;2023-04-01T01:39:11;59375.66;;;10.39;95.49
7836;BME280;3963;42.658;23.298;2023-04-01T01:41:41;59371.13;;;10.27;98.99
7836;BME280;3963;42.658;23.298;2023-04-01T01:44:11;59368.44;;;10.25;98.29
7836;BME280;3963;42.658;23.298;2023-04-01T01:46:39;59404.75;;;10.27;94.88
7836;BME280;3963;42.658;23.298;2023-04-01T01:49:10;59373.81;;;10.15;96.17
7836;BME280;3963;42.658;23.298;2023-04-01T01:51:41;59375.13;;;10.38;91.41
7836;BME280;3963;42.658;23.298;2023-04-01T01:54:12;59442.44;;;10.70;87.92
7836;BME280;3963;42.658;23.298;2023-04-01T01:56:40;59437.72;;;10.68;87.73
7836;BME280;3963;42.658;23.298;2023-04-01T01:59:10;59443.75;;;10.79;86.71
7836;BME280;3963;42.658;23.298;2023-04-01T02:01:39;59417.53;;;10.69;88.98
7836;BME280;3963;42.658;23.298;2023-04-01T02:04:10;59411.47;;;10.58;90.44
7836;BME280;3963;42.658;23.298;2023-04-01T02:06:42;59437.94;;;10.76;90.11
7836;BME280;3963;42.658;23.298;2023-04-01T02:09:12;59444.22;;;10.77;89.29
7836;BME280;3963;42.658;23.298;2023-04-01T02:11:42;59458.03;;;10.87;84.55
7836;BME280;3963;42.658;23.298;2023-04-01T02:14:14;59492.63;;;11.15;80.87
7836;BME280;3963;42.658;23.298;2023-04-01T02:16:45;59479.50;;;11.10;81.70
7836;BME280;3963;42.658;23.298;2023-04-01T02:19:16;59483.91;;;11.02;83.67
7836;BME280;3963;42.658;23.298;2023-04-01T02:21:49;59454.56;;;11.08;80.95
7836;BME280;3963;42.658;23.298;2023-04-01T02:24:17;59504.22;;;11.21;79.96
7836;BME280;3963;42.658;23.298;2023-04-01T02:26:48;59498.59;;;11.23;81.00
7836;BME280;3963;42.658;23.298;2023-04-01T02:29:18;59512.38;;;11.17;80.39
7836;BME280;3963;42.658;23.298;2023-04-01T02:31:46;59538.19;;;11.14;79.62
7836;BME280;3963;42.658;23.298;2023-04-01T02:34:13;59469.09;;;10.93;86.23
7836;BME280;3963;42.658;23.298;2023-04-01T02:36:41;59499.16;;;11.09;85.46
7836;BME280;3963;42.658;23.298;2023-04-01T02:39:09;59463.19;;;11.02;83.48
7836;BME280;3963;42.658;23.298;2023-04-01T02:41:39;59453.25;;;11.00;83.93
7836;BME280;3963;42.658;23.298;2023-04-01T02:44:06;59484.00;;;11.04;84.29
7836;BME280;3963;42.658;23.298;2023-04-01T02:46:33;59513.91;;;11.16;82.82
7836;BME280;3963;42.658;23.298;2023-04-01T02:49:00;59486.66;;;11.07;84.29
7836;BME280;3963;42.658;23.298;2023-04-01T02:51:26;59491.69;;;11.02;84.68
7836;BME280;3963;42.658;23.298;2023-04-01T02:53:53;59470.84;;;10.99;85.15
7836;BME280;3963;42.658;23.298;2023-04-01T02:56:21;59463.19;;;10.87;84.81
7836;BME280;3963;42.658;23.298;2023-04-01T02:58:48;59464.97;;;10.94;86.22
7836;BME280;3963;42.658;23.298;2023-04-01T03:01:16;59466.66;;;10.98;85.03
7836;BME280;3963;42.658;23.298;2023-04-01T03:03:42;59489.78;;;11.07;84.03
7836;BME280;3963;42.658;23.298;2023-04-01T03:06:12;59460.91;;;11.12;84.41
7836;BME280;3963;42.658;23.298;2023-04-01T03:08:39;59476.63;;;11.17;84.10
7836;BME280;3963;42.658;23.298;2023-04-01T03:11:06;59470.13;;;11.08;85.11
7836;BME280;3963;42.658;23.298;2023-04-01T03:13:34;59475.69;;;11.04;85.42
7836;BME280;3963;42.658;23.298;2023-04-01T03:16:01;59473.56;;;11.02;84.85
7836;BME280;3963;42.658;23.298;2023-04-01T03:18:28;59476.25;;;10.90;87.73
7836;BME280;3963;42.658;23.298;2023-04-01T03:20:55;59468.91;;;10.88;91.96
7836;BME280;3963;42.658;23.298;2023-04-01T03:23:22;59480.72;;;10.84;95.40
7836;BME280;3963;42.658;23.298;2023-04-01T03:25:50;59425.00;;;10.76;99.02
7836;BME280;3963;42.658;23.298;2023-04-01T03:28:18;59468.94;;;10.73;100.00
7836;BME280;3963;42.658;23.298;2023-04-01T03:30:47;59430.03;;;10.71;97.06
7836;BME280;3963;42.658;23.298;2023-04-01T03:33:14;59425.13;;;10.64;100.00
7836;BME280;3963;42.658;23.298;2023-04-01T03:35:40;59434.34;;;10.60;100.00
7836;BME280;3963;42.658;23.298;2023-04-01T03:38:07;59422.94;;;10.44;100.00
7836;BME280;3963;42.658;23.298;2023-04-01T03:40:34;59424.44;;;10.43;100.00
7836;BME280;3963;42.658;23.298;2023-04-01T03:43:02;59387.31;;;10.47;100.00
7836;BME280;3963;42.658;23.298;2023-04-01T03:45:33;59384.56;;;10.42;100.00
7836;BME280;3963;42.658;23.298;2023-04-01T03:48:02;59365.50;;;10.29;100.00
7836;BME280;3963;42.658;23.298;2023-04-01T03:50:28;59363.72;;;10.23;100.00
7836;BME280;3963;42.658;23.298;2023-04-01T03:52:55;59346.97;;;10.17;100.00
7836;BME280;3963;42.658;23.298;2023-04-01T03:55:22;59386.31;;;10.17;100.00
7836;BME280;3963;42.658;23.298;2023-04-01T03:57:48;59370.88;;;10.20;100.00
7836;BME280;3963;42.658;23.298;2023-04-01T04:00:15;59379.00;;;10.15;100.00
7836;BME280;3963;42.658;23.298;2023-04-01T04:02:42;59347.06;;;10.05;100.00
7836;BME280;3963;42.658;23.298;2023-04-01T04:05:11;59347.31;;;10.12;100.00
7836;BME280;3963;42.658;23.298;2023-04-01T04:07:38;59375.16;;;10.09;100.00
7836;BME280;3963;42.658;23.298;2023-04-01T04:10:06;59383.09;;;10.14;100.00
7836;BME280;3963;42.658;23.298;2023-04-01T04:12:33;59378.78;;;10.25;100.00
7836;BME280;3963;42.658;23.298;2023-04-01T04:15:00;59413.31;;;10.35;100.00
7836;BME280;3963;42.658;23.298;2023-04-01T04:17:26;59396.72;;;10.34;100.00
7836;BME280;3963;42.658;23.298;2023-04-01T04:19:54;59410.78;;;10.52;100.00
7836;BME280;3963;42.658;23.298;2023-04-01T04:22:22;59415.94;;;10.52;100.00
7836;BME280;3963;42.658;23.298;2023-04-01T04:24:49;59418.19;;;10.42;100.00
7836;BME280;3963;42.658;23.298;2023-04-01T04:27:16;59391.63;;;10.37;100.00
7836;BME280;3963;42.658;23.298;2023-04-01T04:29:43;59390.63;;;10.38;100.00
7836;BME280;3963;42.658;23.298;2023-04-01T04:32:09;59404.56;;;10.37;100.00
7836;BME280;3963;42.658;23.298;2023-04-01T04:34:36;59434.00;;;10.50;100.00
7836;BME280;3963;42.658;23.298;2023-04-01T04:37:03;59388.13;;;10.41;100.00
7836;BME280;3963;42.658;23.298;2023-04-01T04:39:31;59416.22;;;10.45;100.00
7836;BME280;3963;42.658;23.298;2023-04-01T04:41:58;59385.47;;;10.38;100.00
7836;BME280;3963;42.658;23.298;2023-04-01T04:44:24;59381.38;;;10.10;100.00
7836;BME280;3963;42.658;23.298;2023-04-01T04:46:51;59392.72;;;10.23;100.00
7836;BME280;3963;42.658;23.298;2023-04-01T04:49:18;59394.56;;;10.32;100.00
7836;BME280;3963;42.658;23.298;2023-04-01T04:51:44;59409.91;;;10.42;100.00
7836;BME280;3963;42.658;23.298;2023-04-01T04:54:11;59368.69;;;10.32;100.00
7836;BME280;3963;42.658;23.298;2023-04-01T04:56:39;59398.44;;;10.55;100.00
7836;BME280;3963;42.658;23.298;2023-04-01T04:59:06;59414.88;;;10.51;100.00
7836;BME280;3963;42.658;23.298;2023-04-01T05:01:33;59420.25;;;10.42;100.00
7836;BME280;3963;42.658;23.298;2023-04-01T05:04:00;59428.00;;;10.57;100.00
7836;BME280;3963;42.658;23.298;2023-04-01T05:06:27;59412.03;;;10.44;100.00
7836;BME280;3963;42.658;23.298;2023-04-01T05:08:55;59421.84;;;10.43;100.00
7836;BME280;3963;42.658;23.298;2023-04-01T05:11:22;59389.94;;;10.33;100.00
7836;BME280;3963;42.658;23.298;2023-04-01T05:13:52;59422.59;;;10.34;100.00
7836;BME280;3963;42.658;23.298;2023-04-01T05:16:20;59386.19;;;10.29;100.00
7836;BME280;3963;42.658;23.298;2023-04-01T05:18:47;59378.09;;;10.19;100.00
7836;BME280;3963;42.658;23.298;2023-04-01T05:21:14;59371.47;;;10.23;100.00
7836;BME280;3963;42.658;23.298;2023-04-01T05:23:42;59381.59;;;10.15;100.00
7836;BME280;3963;42.658;23.298;2023-04-01T05:26:11;59330.38;;;10.01;100.00
7836;BME280;3963;42.658;23.298;2023-04-01T05:28:38;59364.09;;;10.03;100.00
7836;BME280;3963;42.658;23.298;2023-04-01T05:31:07;59374.69;;;10.11;100.00
7836;BME280;3963;42.658;23.298;2023-04-01T05:33:34;59372.06;;;9.94;100.00
7836;BME280;3963;42.658;23.298;2023-04-01T05:36:08;59378.38;;;10.12;100.00
7836;BME280;3963;42.658;23.298;2023-04-01T05:38:35;59370.88;;;10.20;100.00
7836;BME280;3963;42.658;23.298;2023-04-01T05:41:02;59400.72;;;10.31;100.00
7836;BME280;3963;42.658;23.298;2023-04-01T05:43:30;59400.66;;;10.28;100.00
7836;BME280;3963;42.658;23.298;2023-04-01T05:45:59;59381.91;;;10.25;100.00
7836;BME280;3963;42.658;23.298;2023-04-01T05:48:27;59407.75;;;10.40;100.00
7836;BME280;3963;42.658;23.298;2023-04-01T05:50:55;59417.38;;;10.49;100.00
7836;BME280;3963;42.658;23.298;2023-04-01T05:53:22;59443.25;;;10.64;100.00
7836;BME280;3963;42.658;23.298;2023-04-01T05:55:49;59408.22;;;10.70;100.00
7836;BME280;3963;42.658;23.298;2023-04-01T05:58:16;59458.19;;;10.92;97.62
7836;BME280;3963;42.658;23.298;2023-04-01T06:00:42;59504.34;;;11.09;94.59
7836;BME280;3963;42.658;23.298;2023-04-01T06:03:09;59508.78;;;11.18;90.45
7836;BME280;3963;42.658;23.298;2023-04-01T06:05:40;59514.94;;;11.31;88.26
7836;BME280;3963;42.658;23.298;2023-04-01T06:08:11;59562.63;;;11.61;88.43
7836;BME280;3963;42.658;23.298;2023-04-01T06:10:50;59572.69;;;11.83;85.38
7836;BME280;3963;42.658;23.298;2023-04-01T06:13:27;59628.66;;;12.11;81.58
7836;BME280;3963;42.658;23.298;2023-04-01T06:16:05;59633.63;;;12.21;80.38
7836;BME280;3963;42.658;23.298;2023-04-01T06:18:46;59653.56;;;12.42;80.25
7836;BME280;3963;42.658;23.298;2023-04-01T06:21:37;59676.88;;;12.57;75.53
7836;BME280;3963;42.658;23.298;2023-04-01T06:24:19;59654.25;;;12.48;75.79
7836;BME280;3963;42.658;23.298;2023-04-01T06:26:59;59712.72;;;12.56;80.19
7836;BME280;3963;42.658;23.298;2023-04-01T06:29:51;59743.13;;;12.80;78.75
7836;BME280;3963;42.658;23.298;2023-04-01T06:32:31;59748.09;;;13.04;71.76
7836;BME280;3963;42.658;23.298;2023-04-01T06:35:21;59757.47;;;13.20;72.21
7836;BME280;3963;42.658;23.298;2023-04-01T06:41:13;59775.78;;;13.23;67.06
7836;BME280;3963;42.658;23.298;2023-04-01T06:43:52;59790.38;;;13.24;67.81
7836;BME280;3963;42.658;23.298;2023-04-01T06:46:31;59780.41;;;13.37;67.27
7836;BME280;3963;42.658;23.298;2023-04-01T06:49:21;59766.44;;;13.24;69.00
7836;BME280;3963;42.658;23.298;2023-04-01T06:51:56;59772.34;;;13.29;68.00
7836;BME280;3963;42.658;23.298;2023-04-01T06:54:32;59761.75;;;13.39;66.99
7836;BME280;3963;42.658;23.298;2023-04-01T06:57:05;59817.78;;;13.50;66.13
7836;BME280;3963;42.658;23.298;2023-04-01T06:59:37;59831.75;;;13.63;66.25
7836;BME280;3963;42.658;23.298;2023-04-01T07:02:15;59807.47;;;13.38;67.51
7836;BME280;3963;42.658;23.298;2023-04-01T07:04:46;59781.19;;;13.45;68.02
7836;BME280;3963;42.658;23.298;2023-04-01T07:07:21;59811.63;;;13.37;68.40
7836;BME280;3963;42.658;23.298;2023-04-01T07:09:55;59755.72;;;13.14;70.27
7836;BME280;3963;42.658;23.298;2023-04-01T07:12:31;59764.94;;;13.25;70.18
7836;BME280;3963;42.658;23.298;2023-04-01T07:15:05;59774.91;;;13.12;71.25
7836;BME280;3963;42.658;23.298;2023-04-01T07:17:39;59788.69;;;13.20;71.62
7836;BME280;3963;42.658;23.298;2023-04-01T07:20:13;59785.66;;;13.22;72.96
7836;BME280;3963;42.658;23.298;2023-04-01T07:22:45;59774.88;;;13.27;74.58
7836;BME280;3963;42.658;23.298;2023-04-01T07:25:17;59788.50;;;13.30;74.77
7836;BME280;3963;42.658;23.298;2023-04-01T07:27:45;59793.56;;;13.42;73.28
7836;BME280;3963;42.658;23.298;2023-04-01T07:30:14;59827.00;;;13.61;71.88
7836;BME280;3963;42.658;23.298;2023-04-01T07:32:45;59822.78;;;13.60;72.16
7836;BME280;3963;42.658;23.298;2023-04-01T07:35:22;59823.34;;;13.77;70.66
7836;BME280;3963;42.658;23.298;2023-04-01T07:38:02;59903.56;;;13.94;68.45
7836;BME280;3963;42.658;23.298;2023-04-01T07:40:39;59884.84;;;14.11;68.80
7836;BME280;3963;42.658;23.298;2023-04-01T07:43:24;59922.47;;;14.14;67.62
7836;BME280;3963;42.658;23.298;2023-04-01T07:46:03;59918.25;;;14.13;67.99
7836;BME280;3963;42.658;23.298;2023-04-01T07:48:43;59880.06;;;14.23;68.18
7836;BME280;3963;42.658;23.298;2023-04-01T07:51:18;59892.63;;;13.94;69.92
7836;BME280;3963;42.658;23.298;2023-04-01T07:53:53;59865.75;;;14.00;70.27
7836;BME280;3963;42.658;23.298;2023-04-01T07:56:31;59896.00;;;14.02;70.96
7836;BME280;3963;42.658;23.298;2023-04-01T07:59:07;59934.72;;;14.06;71.23
7836;BME280;3963;42.658;23.298;2023-04-01T08:01:42;59864.25;;;13.86;71.72
7836;BME280;3963;42.658;23.298;2023-04-01T08:04:25;59892.06;;;13.93;71.67
7836;BME280;3963;42.658;23.298;2023-04-01T08:07:00;59908.50;;;13.86;71.33
7836;BME280;3963;42.658;23.298;2023-04-01T08:09:33;59864.59;;;13.97;70.95
7836;BME280;3963;42.658;23.298;2023-04-01T08:12:13;59897.75;;;13.91;69.80
7836;BME280;3963;42.658;23.298;2023-04-01T08:14:54;59921.81;;;14.26;70.33
7836;BME280;3963;42.658;23.298;2023-04-01T08:17:28;59955.94;;;14.48;69.59
7836;BME280;3963;42.658;23.298;2023-04-01T08:20:10;59983.31;;;14.88;68.19
7836;BME280;3963;42.658;23.298;2023-04-01T08:22:42;60001.56;;;14.88;66.94
7836;BME280;3963;42.658;23.298;2023-04-01T08:25:16;60047.31;;;15.00;65.91
7836;BME280;3963;42.658;23.298;2023-04-01T08:27:49;60013.84;;;14.80;65.93
7836;BME280;3963;42.658;23.298;2023-04-01T08:30:19;60043.91;;;15.06;65.65
7836;BME280;3963;42.658;23.298;2023-04-01T08:32:49;60170.50;;;16.08;61.44
7836;BME280;3963;42.658;23.298;2023-04-01T08:35:26;60308.13;;;17.19;58.19
7836;BME280;3963;42.658;23.298;2023-04-01T08:37:57;60476.69;;;18.25;53.31
7836;BME280;3963;42.658;23.298;2023-04-01T08:40:53;60565.63;;;18.96;49.46
7836;BME280;3963;42.658;23.298;2023-04-01T08:43:33;60556.63;;;19.09;48.56
7836;BME280;3963;42.658;23.298;2023-04-01T08:46:16;60775.91;;;20.23;45.63
7836;BME280;3963;42.658;23.298;2023-04-01T08:49:01;60767.22;;;20.29;44.97
7836;BME280;3963;42.658;23.298;2023-04-01T08:51:53;60867.72;;;20.91;43.39
7836;BME280;3963;42.658;23.298;2023-04-01T08:54:46;60879.28;;;21.21;42.36
7836;BME280;3963;42.658;23.298;2023-04-01T08:57:16;60887.03;;;21.16;41.56
7836;BME280;3963;42.658;23.298;2023-04-01T08:59:57;60895.44;;;21.31;41.01
7836;BME280;3963;42.658;23.298;2023-04-01T09:02:55;60808.31;;;20.63;41.76
7836;BME280;3963;42.658;23.298;2023-04-01T09:05:36;60704.75;;;19.86;43.19
7836;BME280;3963;42.658;23.298;2023-04-01T09:08:15;60660.09;;;19.40;43.38
7836;BME280;3963;42.658;23.298;2023-04-01T09:10:56;60606.63;;;18.97;45.21
7836;BME280;3963;42.658;23.298;2023-04-01T09:13:43;60555.69;;;18.96;44.68
7836;BME280;3963;42.658;23.298;2023-04-01T09:16:30;60576.72;;;18.82;44.88
7836;BME280;3963;42.658;23.298;2023-04-01T09:19:14;60520.69;;;18.54;45.11
7836;BME280;3963;42.658;23.298;2023-04-01T09:22:09;60476.34;;;18.47;45.22
7836;BME280;3963;42.658;23.298;2023-04-01T09:24:44;60555.50;;;18.59;45.53
7836;BME280;3963;42.658;23.298;2023-04-01T09:27:25;60524.28;;;18.52;44.67
7836;BME280;3963;42.658;23.298;2023-04-01T09:30:38;60496.59;;;18.24;44.51
7836;BME280;3963;42.658;23.298;2023-04-01T09:36:12;60572.19;;;18.87;42.76
7836;BME280;3963;42.658;23.298;2023-04-01T09:38:56;60618.16;;;19.27;39.94
7836;BME280;3963;42.658;23.298;2023-04-01T09:41:29;60674.34;;;19.58;38.65
7836;BME280;3963;42.658;23.298;2023-04-01T09:44:03;60779.34;;;20.31;38.73
7836;BME280;3963;42.658;23.298;2023-04-01T09:46:37;60780.59;;;20.52;38.15
7836;BME280;3963;42.658;23.298;2023-04-01T09:49:50;60996.66;;;21.79;35.34
7836;BME280;3963;42.658;23.298;2023-04-01T09:52:33;61115.34;;;22.54;33.13
7836;BME280;3963;42.658;23.298;2023-04-01T09:55:21;61229.69;;;23.53;32.97
7836;BME280;3963;42.658;23.298;2023-04-01T10:01:36;61307.22;;;23.93;32.29
7836;BME280;3963;42.658;23.298;2023-04-01T10:04:28;61243.28;;;23.48;34.14
7836;BME280;3963;42.658;23.298;2023-04-01T10:07:35;61227.66;;;23.56;33.07
7836;BME280;3963;42.658;23.298;2023-04-01T10:10:33;61090.09;;;22.26;34.98
7836;BME280;3963;42.658;23.298;2023-04-01T10:13:36;61164.09;;;22.90;33.63
7836;BME280;3963;42.658;23.298;2023-04-01T10:19:43;61343.13;;;24.21;32.17
7836;BME280;3963;42.658;23.298;2023-04-01T10:22:38;61310.53;;;23.81;32.64
7836;BME280;3963;42.658;23.298;2023-04-01T10:25:32;61266.06;;;23.64;32.60
7836;BME280;3963;42.658;23.298;2023-04-01T10:28:43;61333.16;;;23.92;31.88
7836;BME280;3963;42.658;23.298;2023-04-01T10:31:47;61347.66;;;24.30;31.90
7836;BME280;3963;42.658;23.298;2023-04-01T10:37:47;61114.50;;;22.61;30.58
7836;BME280;3963;42.658;23.298;2023-04-01T10:40:42;61122.44;;;22.61;30.47
7836;BME280;3963;42.658;23.298;2023-04-01T10:43:40;61120.97;;;22.65;32.50
7836;BME280;3963;42.658;23.298;2023-04-01T10:46:34;61039.41;;;21.94;34.81
7836;BME280;3963;42.658;23.298;2023-04-01T10:55:43;60644.75;;;19.38;39.80
7836;BME280;3963;42.658;23.298;2023-04-01T10:58:38;60680.56;;;19.39;41.07
7836;BME280;3963;42.658;23.298;2023-04-01T11:01:27;60632.75;;;19.24;40.96
7836;BME280;3963;42.658;23.298;2023-04-01T11:10:44;60568.75;;;18.79;38.28
7836;BME280;3963;42.658;23.298;2023-04-01T11:13:39;60590.13;;;19.06;38.31
7836;BME280;3963;42.658;23.298;2023-04-01T11:22:29;60577.63;;;18.77;38.75
7836;BME280;3963;42.658;23.298;2023-04-01T11:25:11;60531.00;;;18.49;40.17
7836;BME280;3963;42.658;23.298;2023-04-01T11:27:58;60520.44;;;18.32;43.27
7836;BME280;3963;42.658;23.298;2023-04-01T11:30:54;60449.66;;;17.85;44.00
7836;BME280;3963;42.658;23.298;2023-04-01T11:33:29;60371.75;;;17.12;49.76
7836;BME280;3963;42.658;23.298;2023-04-01T11:36:12;60353.09;;;17.02;52.61
7836;BME280;3963;42.658;23.298;2023-04-01T11:41:38;60208.31;;;16.28;60.82
7836;BME280;3963;42.658;23.298;2023-04-01T11:44:18;60180.91;;;15.90;77.79
7836;BME280;3963;42.658;23.298;2023-04-01T11:47:02;60083.06;;;15.23;86.61
7836;BME280;3963;42.658;23.298;2023-04-01T11:49:46;59933.88;;;14.27;96.17
7836;BME280;3963;42.658;23.298;2023-04-01T11:52:51;59828.84;;;13.24;100.00
7836;BME280;3963;42.658;23.298;2023-04-01T11:55:37;59702.03;;;12.17;100.00
7836;BME280;3963;42.658;23.298;2023-04-01T12:01:25;59662.94;;;11.83;100.00
7836;BME280;3963;42.658;23.298;2023-04-01T12:07:00;59695.06;;;11.66;100.00
7836;BME280;3963;42.658;23.298;2023-04-01T12:09:35;59612.16;;;11.54;100.00
7836;BME280;3963;42.658;23.298;2023-04-01T12:12:13;59688.25;;;11.50;100.00
7836;BME280;3963;42.658;23.298;2023-04-01T12:14:50;59686.09;;;11.48;100.00
7836;BME280;3963;42.658;23.298;2023-04-01T12:17:30;59779.06;;;11.80;100.00
7836;BME280;3963;42.658;23.298;2023-04-01T12:22:57;59750.63;;;11.97;100.00
7836;BME280;3963;42.658;23.298;2023-04-01T12:26:00;59728.63;;;12.05;100.00
7836;BME280;3963;42.658;23.298;2023-04-01T12:28:41;59728.53;;;12.17;100.00
7836;BME280;3963;42.658;23.298;2023-04-01T12:31:19;59740.59;;;12.21;100.00
7836;BME280;3963;42.658;23.298;2023-04-01T12:34:11;59682.59;;;12.11;100.00
7836;BME280;3963;42.658;23.298;2023-04-01T12:36:52;59702.75;;;12.08;100.00
7836;BME280;3963;42.658;23.298;2023-04-01T12:39:33;59669.34;;;12.18;100.00
7836;BME280;3963;42.658;23.298;2023-04-01T12:42:12;59665.69;;;12.17;100.00
7836;BME280;3963;42.658;23.298;2023-04-01T12:44:53;59692.09;;;12.15;100.00
7836;BME280;3963;42.658;23.298;2023-04-01T12:50:39;59720.44;;;12.25;100.00
7836;BME280;3963;42.658;23.298;2023-04-01T12:53:25;59665.22;;;12.19;100.00
7836;BME280;3963;42.658;23.298;2023-04-01T12:55:59;59663.91;;;12.10;100.00
7836;BME280;3963;42.658;23.298;2023-04-01T13:01:57;59638.78;;;11.89;100.00
7836;BME280;3963;42.658;23.298;2023-04-01T13:04:39;59670.25;;;12.14;100.00
7836;BME280;3963;42.658;23.298;2023-04-01T13:07:41;59677.66;;;12.18;100.00
7836;BME280;3963;42.658;23.298;2023-04-01T13:10:20;59696.81;;;12.32;100.00
7836;BME280;3963;42.658;23.298;2023-04-01T13:13:23;59704.75;;;12.37;100.00
7836;BME280;3963;42.658;23.298;2023-04-01T13:15:57;59694.53;;;12.56;100.00
7836;BME280;3963;42.658;23.298;2023-04-01T13:18:32;59736.59;;;12.71;100.00
7836;BME280;3963;42.658;23.298;2023-04-01T13:21:10;59757.72;;;12.82;100.00
7836;BME280;3963;42.658;23.298;2023-04-01T13:23:52;59760.59;;;12.89;100.00
7836;BME280;3963;42.658;23.298;2023-04-01T13:26:26;59794.97;;;13.07;100.00
7836;BME280;3963;42.658;23.298;2023-04-01T13:28:59;59798.22;;;13.10;100.00
7836;BME280;3963;42.658;23.298;2023-04-01T13:31:37;59770.97;;;12.89;100.00
7836;BME280;3963;42.658;23.298;2023-04-01T13:34:15;59786.13;;;12.91;100.00
7836;BME280;3963;42.658;23.298;2023-04-01T13:36:59;59782.63;;;12.95;100.00
7836;BME280;3963;42.658;23.298;2023-04-01T13:39:48;59766.88;;;12.75;100.00
7836;BME280;3963;42.658;23.298;2023-04-01T13:42:23;59731.63;;;12.47;100.00
7836;BME280;3963;42.658;23.298;2023-04-01T13:44:55;59706.22;;;12.33;100.00
7836;BME280;3963;42.658;23.298;2023-04-01T13:47:43;59698.66;;;12.55;100.00
7836;BME280;3963;42.658;23.298;2023-04-01T13:53:39;59775.63;;;13.03;100.00
7836;BME280;3963;42.658;23.298;2023-04-01T13:56:24;59828.75;;;13.36;100.00
7836;BME280;3963;42.658;23.298;2023-04-01T13:59:02;59883.28;;;13.80;100.00
7836;BME280;3963;42.658;23.298;2023-04-01T14:01:37;59894.56;;;14.05;100.00
7836;BME280;3963;42.658;23.298;2023-04-01T14:04:23;59920.41;;;14.15;100.00
7836;BME280;3963;42.658;23.298;2023-04-01T14:07:04;59934.41;;;14.13;100.00
7836;BME280;3963;42.658;23.298;2023-04-01T14:09:51;59927.69;;;14.14;100.00
7836;BME280;3963;42.658;23.298;2023-04-01T14:12:30;59919.16;;;14.09;100.00
7836;BME280;3963;42.658;23.298;2023-04-01T14:18:14;59887.94;;;13.94;100.00
7836;BME280;3963;42.658;23.298;2023-04-01T14:20:48;59898.72;;;13.90;100.00
7836;BME280;3963;42.658;23.298;2023-04-01T14:23:38;59907.25;;;13.95;100.00
7836;BME280;3963;42.658;23.298;2023-04-01T14:26:26;59941.06;;;14.10;100.00
7836;BME280;3963;42.658;23.298;2023-04-01T14:29:06;59926.50;;;14.11;100.00
7836;BME280;3963;42.658;23.298;2023-04-01T14:31:45;59913.03;;;14.13;100.00
7836;BME280;3963;42.658;23.298;2023-04-01T14:34:25;59927.22;;;14.16;100.00
7836;BME280;3963;42.658;23.298;2023-04-01T14:37:05;59969.00;;;14.33;100.00
7836;BME280;3963;42.658;23.298;2023-04-01T14:39:59;59990.31;;;14.63;100.00
7836;BME280;3963;42.658;23.298;2023-04-01T14:42:45;59975.88;;;14.84;100.00
7836;BME280;3963;42.658;23.298;2023-04-01T14:45:43;60013.41;;;15.00;82.27
7836;BME280;3963;42.658;23.298;2023-04-01T14:48:21;60043.91;;;15.06;70.83
7836;BME280;3963;42.658;23.298;2023-04-01T14:50:51;60042.59;;;15.15;71.20
7836;BME280;3963;42.658;23.298;2023-04-01T14:53:27;60086.84;;;15.27;72.34
7836;BME280;3963;42.658;23.298;2023-04-01T14:55:56;60060.69;;;15.24;70.70